createdAt,value
2022-10-31T00:00:49.443Z,13.15
2022-10-31T00:03:18.160Z,13.82
2022-10-31T00:05:47.083Z,14.48
2022-10-31T00:08:13.534Z,11.30
2022-10-31T00:10:40.967Z,12.55
2022-10-31T00:13:08.590Z,11.75
2022-10-31T00:15:36.319Z,9.75
2022-10-31T00:18:03.876Z,12.45
2022-10-31T00:20:30.694Z,13.13
2022-10-31T00:23:04.081Z,14.80
2022-10-31T00:25:35.097Z,11.75
2022-10-31T00:28:02.078Z,12.75
2022-10-31T00:30:28.856Z,10.07
2022-10-31T00:32:55.302Z,8.75
2022-10-31T00:35:21.841Z,9.95
2022-10-31T00:37:48.366Z,10.57
2022-10-31T00:40:14.844Z,11.27
2022-10-31T00:42:42.641Z,11.13
2022-10-31T00:45:11.184Z,11.35
2022-10-31T00:47:38.338Z,11.65
2022-10-31T00:50:08.650Z,10.25
2022-10-31T00:52:35.593Z,7.90
2022-10-31T00:55:02.181Z,12.30
2022-10-31T00:57:28.642Z,10.57
2022-10-31T00:59:55.128Z,9.95
2022-10-31T01:02:22.432Z,10.10
2022-10-31T01:04:49.102Z,9.32
2022-10-31T01:07:15.654Z,8.35
2022-10-31T01:09:42.163Z,10.13
2022-10-31T01:12:09.237Z,10.02
2022-10-31T01:14:37.178Z,9.93
2022-10-31T01:17:03.881Z,9.80
2022-10-31T01:19:30.416Z,9.02
2022-10-31T01:21:56.945Z,10.20
2022-10-31T01:24:23.425Z,9.57
2022-10-31T01:26:49.891Z,8.88
2022-10-31T01:29:16.671Z,7.88
2022-10-31T01:31:43.132Z,8.43
2022-10-31T01:34:14.148Z,10.00
2022-10-31T01:36:40.844Z,10.23
2022-10-31T01:39:13.315Z,10.45
2022-10-31T01:41:46.201Z,9.82
2022-10-31T01:44:15.556Z,9.63
2022-10-31T01:46:46.134Z,10.65
2022-10-31T01:49:19.008Z,9.35
2022-10-31T01:51:58.141Z,10.18
2022-10-31T01:54:28.252Z,10.63
2022-10-31T01:56:57.358Z,9.95
2022-10-31T01:59:24.864Z,11.23
2022-10-31T02:01:52.401Z,10.10
2022-10-31T02:04:20.092Z,9.82
2022-10-31T02:07:08.619Z,9.90
2022-10-31T02:09:35.837Z,10.18
2022-10-31T02:12:02.824Z,11.43
2022-10-31T02:14:31.262Z,10.18
2022-10-31T02:16:58.364Z,9.05
2022-10-31T02:19:53.198Z,10.73
2022-10-31T02:22:41.661Z,10.00
2022-10-31T02:25:15.472Z,9.75
2022-10-31T02:28:06.910Z,9.75
2022-10-31T02:31:12.446Z,10.60
2022-10-31T02:33:52.388Z,9.43
2022-10-31T02:36:18.900Z,9.88
2022-10-31T02:38:55.394Z,10.55
2022-10-31T02:41:38.061Z,10.65
2022-10-31T02:44:19.739Z,9.57
2022-10-31T02:47:11.295Z,9.45
2022-10-31T02:49:50.111Z,9.52
2022-10-31T02:52:23.685Z,9.80
2022-10-31T02:54:50.716Z,10.00
2022-10-31T02:57:21.208Z,9.23
2022-10-31T02:59:51.307Z,10.52
2022-10-31T03:02:42.848Z,9.52
2022-10-31T03:05:15.373Z,9.75
2022-10-31T03:08:09.055Z,9.38
2022-10-31T03:10:48.963Z,9.10
2022-10-31T03:13:30.724Z,10.32
2022-10-31T03:16:04.151Z,8.57
2022-10-31T03:18:36.158Z,8.68
2022-10-31T03:21:06.100Z,10.02
2022-10-31T03:23:35.433Z,9.52
2022-10-31T03:26:03.502Z,8.82
2022-10-31T03:28:33.035Z,8.95
2022-10-31T03:31:02.335Z,9.10
2022-10-31T03:33:35.437Z,9.93
2022-10-31T03:36:04.057Z,10.15
2022-10-31T03:38:30.926Z,9.32
2022-10-31T03:40:59.575Z,9.57
2022-10-31T03:43:30.642Z,9.77
2022-10-31T03:45:57.567Z,8.82
2022-10-31T03:48:25.329Z,9.10
2022-10-31T03:50:59.578Z,9.23
2022-10-31T03:53:29.367Z,9.63
2022-10-31T03:56:03.512Z,9.23
2022-10-31T03:58:46.570Z,10.13
2022-10-31T04:01:16.299Z,8.88
2022-10-31T04:03:43.763Z,9.50
2022-10-31T04:06:12.433Z,9.35
2022-10-31T04:08:43.515Z,8.57
2022-10-31T04:11:10.814Z,9.27
2022-10-31T04:13:38.506Z,9.40
2022-10-31T04:16:05.325Z,8.32
2022-10-31T04:18:31.756Z,8.45
2022-10-31T04:21:06.382Z,9.07
2022-10-31T04:23:33.935Z,9.00
2022-10-31T04:26:00.528Z,9.70
2022-10-31T04:28:27.009Z,9.48
2022-10-31T04:30:53.475Z,9.00
2022-10-31T04:33:20.470Z,9.38
2022-10-31T04:35:47.465Z,9.68
2022-10-31T04:38:14.061Z,8.85
2022-10-31T04:40:40.589Z,9.20
2022-10-31T04:43:07.481Z,9.00
2022-10-31T04:45:33.981Z,9.60
2022-10-31T04:48:00.705Z,10.10
2022-10-31T04:50:27.462Z,10.43
2022-10-31T04:52:53.888Z,9.38
2022-10-31T04:55:20.340Z,10.75
2022-10-31T04:57:51.206Z,9.45
2022-10-31T05:00:21.280Z,9.73
2022-10-31T05:02:54.270Z,9.20
2022-10-31T05:05:24.946Z,9.63
2022-10-31T05:07:52.526Z,10.23
2022-10-31T05:10:22.441Z,9.50
2022-10-31T05:12:50.565Z,10.23
2022-10-31T05:15:18.123Z,9.55
2022-10-31T05:17:44.660Z,9.63
2022-10-31T05:20:12.579Z,9.75
2022-10-31T05:22:46.659Z,9.32
2022-10-31T05:25:13.501Z,10.20
2022-10-31T05:27:46.321Z,10.45
2022-10-31T05:30:14.381Z,9.02
2022-10-31T05:32:41.609Z,10.15
2022-10-31T05:35:18.462Z,10.43
2022-10-31T05:37:44.926Z,9.55
2022-10-31T05:40:13.979Z,9.27
2022-10-31T05:42:41.347Z,9.75
2022-10-31T05:45:09.882Z,10.30
2022-10-31T05:47:38.088Z,11.65
2022-10-31T05:50:05.241Z,10.23
2022-10-31T05:52:31.682Z,10.57
2022-10-31T05:54:58.248Z,10.80
2022-10-31T05:57:25.115Z,10.95
2022-10-31T05:59:55.134Z,10.30
2022-10-31T06:02:22.440Z,11.80
2022-10-31T06:04:49.143Z,10.13
2022-10-31T06:07:15.859Z,10.15
2022-10-31T06:09:42.368Z,10.55
2022-10-31T06:12:08.868Z,10.07
2022-10-31T06:14:35.304Z,11.57
2022-10-31T06:17:01.806Z,10.63
2022-10-31T06:19:28.275Z,10.02
2022-10-31T06:21:54.755Z,10.02
2022-10-31T06:24:21.213Z,9.95
2022-10-31T06:26:49.256Z,9.73
2022-10-31T06:29:15.744Z,10.90
2022-10-31T06:31:42.248Z,10.52
2022-10-31T06:34:09.583Z,9.77
2022-10-31T06:36:36.140Z,11.68
2022-10-31T06:39:02.615Z,11.00
2022-10-31T06:41:29.101Z,10.77
2022-10-31T06:43:55.519Z,11.02
2022-10-31T06:46:22.023Z,11.50
2022-10-31T06:48:49.466Z,10.55
2022-10-31T06:51:15.910Z,11.15
2022-10-31T06:53:42.481Z,11.55
2022-10-31T06:56:08.961Z,10.35
2022-10-31T06:58:35.412Z,10.30
2022-10-31T07:01:02.241Z,11.63
2022-10-31T07:03:28.778Z,11.80
2022-10-31T07:05:58.500Z,11.25
2022-10-31T07:08:25.613Z,11.30
2022-10-31T07:10:56.873Z,11.50
2022-10-31T07:13:26.582Z,11.38
2022-10-31T07:16:01.633Z,11.13
2022-10-31T07:18:28.606Z,11.32
2022-10-31T07:20:55.349Z,12.52
2022-10-31T07:23:25.730Z,12.25
2022-10-31T07:25:56.778Z,12.65
2022-10-31T07:28:23.866Z,12.82
2022-10-31T07:30:54.107Z,12.52
2022-10-31T07:33:21.167Z,12.85
2022-10-31T07:35:47.910Z,12.95
2022-10-31T07:38:15.592Z,14.00
2022-10-31T07:40:43.198Z,13.48
2022-10-31T07:43:14.524Z,14.10
2022-10-31T07:45:41.574Z,13.68
2022-10-31T07:48:08.039Z,12.68
2022-10-31T07:50:37.437Z,12.52
2022-10-31T07:53:04.770Z,14.07
2022-10-31T07:55:31.559Z,14.68
2022-10-31T07:58:18.453Z,14.90
2022-10-31T08:00:46.390Z,13.50
2022-10-31T08:03:18.405Z,13.35
2022-10-31T08:05:46.947Z,15.18
2022-10-31T08:08:14.422Z,14.65
2022-10-31T08:10:41.711Z,15.07
2022-10-31T08:13:13.588Z,13.85
2022-10-31T08:15:42.600Z,14.73
2022-10-31T08:18:14.080Z,14.63
2022-10-31T08:20:41.975Z,15.32
2022-10-31T08:23:10.077Z,16.25
2022-10-31T08:25:38.591Z,15.88
2022-10-31T08:28:06.767Z,15.88
2022-10-31T08:30:35.740Z,16.05
2022-10-31T08:33:03.833Z,14.73
2022-10-31T08:35:30.498Z,16.27
2022-10-31T08:37:57.715Z,15.77
2022-10-31T08:40:25.619Z,15.73
2022-10-31T08:42:59.680Z,16.30
2022-10-31T08:45:26.261Z,15.65
2022-10-31T08:47:52.836Z,16.23
2022-10-31T08:50:19.692Z,16.05
2022-10-31T08:53:04.227Z,16.98
2022-10-31T08:55:33.353Z,15.98
2022-10-31T08:58:00.496Z,15.75
2022-10-31T09:00:27.326Z,16.05
2022-10-31T09:03:01.755Z,16.83
2022-10-31T09:05:28.390Z,17.10
2022-10-31T09:08:03.707Z,16.90
2022-10-31T09:10:31.031Z,16.38
2022-10-31T09:12:58.490Z,17.50
2022-10-31T09:15:26.270Z,18.08
2022-10-31T09:17:53.246Z,19.10
2022-10-31T09:20:20.372Z,17.17
2022-10-31T09:22:47.135Z,17.52
2022-10-31T09:25:13.737Z,18.95
2022-10-31T09:27:40.178Z,17.42
2022-10-31T09:30:07.768Z,18.42
2022-10-31T09:32:34.224Z,17.30
2022-10-31T09:35:00.788Z,18.50
2022-10-31T09:37:28.235Z,18.20
2022-10-31T09:39:54.693Z,17.42
2022-10-31T09:42:45.772Z,18.67
2022-10-31T09:45:37.845Z,18.05
2022-10-31T09:48:23.216Z,18.95
2022-10-31T09:51:04.629Z,19.02
2022-10-31T09:53:39.851Z,18.60
2022-10-31T09:56:09.531Z,18.60
2022-10-31T09:58:44.723Z,19.35
2022-10-31T10:01:22.339Z,20.70
2022-10-31T10:03:51.462Z,19.63
2022-10-31T10:06:21.642Z,19.95
2022-10-31T10:08:48.201Z,19.95
2022-10-31T10:11:34.229Z,20.08
2022-10-31T10:14:19.130Z,20.33
2022-10-31T10:16:52.079Z,21.10
2022-10-31T10:19:45.984Z,20.90
2022-10-31T10:22:23.578Z,21.73
2022-10-31T10:25:30.566Z,21.67
2022-10-31T10:28:24.280Z,20.65
2022-10-31T10:31:01.640Z,20.95
2022-10-31T10:33:33.806Z,20.50
2022-10-31T10:36:06.970Z,22.25
2022-10-31T10:38:44.209Z,22.92
2022-10-31T10:41:17.512Z,21.88
2022-10-31T10:43:44.120Z,22.92
2022-10-31T10:46:50.760Z,22.50
2022-10-31T10:49:33.127Z,21.08
2022-10-31T10:55:04.190Z,21.13
2022-10-31T10:58:05.656Z,19.25
2022-10-31T11:00:42.853Z,19.10
2022-10-31T11:03:10.182Z,20.67
2022-10-31T11:05:52.850Z,17.55
2022-10-31T11:08:29.398Z,20.27
2022-10-31T11:10:58.929Z,20.48
2022-10-31T11:13:25.743Z,19.38
2022-10-31T11:15:55.140Z,23.02
2022-10-31T11:18:27.294Z,21.58
2022-10-31T11:20:56.117Z,23.55
2022-10-31T11:23:25.092Z,22.80
2022-10-31T11:26:06.491Z,22.77
2022-10-31T11:28:35.795Z,21.33
2022-10-31T11:31:09.632Z,20.08
2022-10-31T11:33:39.296Z,19.60
2022-10-31T11:36:27.333Z,19.35
2022-10-31T11:38:54.524Z,19.08
2022-10-31T11:41:35.531Z,20.85
2022-10-31T11:44:05.112Z,19.95
2022-10-31T11:46:35.903Z,21.77
2022-10-31T11:49:02.843Z,20.00
2022-10-31T11:51:32.568Z,19.65
2022-10-31T11:54:03.044Z,18.83
2022-10-31T11:56:43.252Z,19.42
2022-10-31T11:59:32.975Z,14.30
2022-10-31T12:02:02.439Z,16.02
2022-10-31T12:05:12.683Z,18.85
2022-10-31T12:07:39.157Z,19.75
2022-10-31T12:10:12.792Z,19.13
2022-10-31T12:13:01.510Z,17.70
2022-10-31T12:15:35.696Z,18.10
2022-10-31T12:18:08.299Z,19.70
2022-10-31T12:20:45.220Z,17.08
2022-10-31T12:23:30.848Z,16.80
2022-10-31T12:26:37.887Z,15.82
2022-10-31T12:29:21.187Z,17.92
2022-10-31T12:31:54.410Z,16.67
2022-10-31T12:34:52.305Z,18.92
2022-10-31T12:37:32.910Z,18.88
2022-10-31T12:40:05.572Z,18.42
2022-10-31T12:43:27.564Z,19.17
2022-10-31T12:45:59.292Z,18.92
2022-10-31T12:49:01.937Z,19.48
2022-10-31T12:51:43.147Z,21.15
2022-10-31T12:54:31.770Z,21.77
2022-10-31T12:57:12.027Z,22.42
2022-10-31T12:59:45.673Z,21.90
2022-10-31T13:02:42.728Z,22.70
2022-10-31T13:05:19.146Z,24.20
2022-10-31T13:08:05.922Z,24.48
2022-10-31T13:10:44.919Z,25.38
2022-10-31T13:13:19.467Z,25.80
2022-10-31T13:15:51.932Z,26.63
2022-10-31T13:18:28.330Z,27.88
2022-10-31T13:20:56.921Z,26.48
2022-10-31T13:23:50.307Z,28.00
2022-10-31T13:26:22.119Z,29.15
2022-10-31T13:28:55.863Z,29.85
2022-10-31T13:31:22.506Z,31.95
2022-10-31T13:33:54.267Z,29.67
2022-10-31T13:36:31.104Z,31.02
2022-10-31T13:39:03.469Z,30.15
2022-10-31T13:41:44.981Z,31.48
2022-10-31T13:44:21.392Z,29.88
2022-10-31T13:46:48.100Z,31.05
2022-10-31T13:49:29.854Z,30.75
2022-10-31T13:52:16.325Z,29.38
2022-10-31T13:54:45.776Z,29.00
2022-10-31T13:57:19.284Z,31.73
2022-10-31T13:59:52.806Z,31.95
2022-10-31T14:02:28.040Z,33.67
2022-10-31T14:05:04.441Z,33.55
2022-10-31T14:07:32.028Z,32.08
2022-10-31T14:10:02.698Z,34.10
2022-10-31T14:12:45.586Z,34.15
2022-10-31T14:15:23.236Z,35.72
2022-10-31T14:17:57.686Z,35.78
2022-10-31T14:20:39.494Z,34.55
2022-10-31T14:23:39.024Z,37.08
2022-10-31T14:26:17.439Z,38.35
2022-10-31T14:28:44.584Z,39.25
2022-10-31T14:31:33.141Z,40.78
2022-10-31T14:34:01.226Z,41.03
2022-10-31T14:37:11.671Z,41.22
2022-10-31T14:39:56.985Z,41.97
2022-10-31T14:42:59.613Z,41.72
2022-10-31T14:45:57.023Z,40.97
2022-10-31T14:48:52.277Z,39.22
2022-10-31T14:51:24.891Z,40.47
2022-10-31T14:53:56.447Z,38.25
2022-10-31T14:56:27.346Z,42.85
2022-10-31T14:58:55.859Z,42.17
2022-10-31T15:01:29.107Z,42.65
2022-10-31T15:04:25.005Z,43.00
2022-10-31T15:07:23.313Z,42.22
2022-10-31T15:10:03.549Z,43.05
2022-10-31T15:12:40.911Z,43.70
2022-10-31T15:15:24.983Z,41.78
2022-10-31T15:17:56.570Z,46.05
2022-10-31T15:20:27.325Z,46.33
2022-10-31T15:22:56.938Z,48.22
2022-10-31T15:25:25.619Z,48.00
2022-10-31T15:27:53.539Z,48.13
2022-10-31T15:30:25.572Z,49.13
2022-10-31T15:32:58.335Z,47.50
2022-10-31T15:35:30.096Z,47.83
2022-10-31T15:37:59.044Z,46.65
2022-10-31T15:40:27.440Z,48.30
2022-10-31T15:43:03.353Z,47.53
2022-10-31T15:45:31.572Z,47.22
2022-10-31T15:48:03.943Z,49.22
2022-10-31T15:50:36.751Z,52.20
2022-10-31T15:53:05.030Z,49.47
2022-10-31T15:55:35.571Z,48.70
2022-10-31T15:58:05.851Z,52.22
2022-10-31T16:00:34.764Z,50.05
2022-10-31T16:03:13.676Z,50.10
2022-10-31T16:05:45.675Z,48.67
2022-10-31T16:08:31.225Z,50.15
2022-10-31T16:11:08.899Z,50.70
2022-10-31T16:13:38.518Z,50.72
2022-10-31T16:19:01.449Z,48.35
2022-10-31T16:21:38.399Z,50.47
2022-10-31T16:24:19.351Z,49.00
2022-10-31T16:26:50.178Z,49.28
2022-10-31T16:29:34.890Z,46.78
2022-10-31T16:32:01.788Z,45.88
2022-10-31T16:34:28.275Z,47.92
2022-10-31T16:36:54.788Z,45.50
2022-10-31T16:39:21.398Z,44.90
2022-10-31T16:41:51.511Z,47.00
2022-10-31T16:44:25.812Z,43.50
2022-10-31T16:47:09.808Z,43.75
2022-10-31T16:49:36.314Z,45.83
2022-10-31T16:52:03.312Z,39.70
2022-10-31T16:54:30.511Z,44.03
2022-10-31T16:56:59.014Z,41.28
2022-10-31T16:59:25.497Z,41.90
2022-10-31T17:01:52.105Z,43.63
2022-10-31T17:04:19.952Z,44.97
2022-10-31T17:06:46.565Z,43.88
2022-10-31T17:09:13.146Z,44.85
2022-10-31T17:11:49.375Z,42.25
2022-10-31T17:14:17.440Z,41.70
2022-10-31T17:16:44.026Z,42.70
2022-10-31T17:19:11.777Z,42.90
2022-10-31T17:21:38.912Z,42.63
2022-10-31T17:24:06.134Z,42.53
2022-10-31T17:26:33.209Z,42.78
2022-10-31T17:29:01.994Z,41.85
2022-10-31T17:31:30.983Z,44.25
2022-10-31T17:34:02.376Z,43.03
2022-10-31T17:36:30.585Z,44.17
2022-10-31T17:38:57.272Z,42.60
2022-10-31T17:41:24.630Z,45.17
2022-10-31T17:43:58.030Z,44.53
2022-10-31T17:46:24.679Z,43.95
2022-10-31T17:48:51.291Z,43.70
2022-10-31T17:51:17.793Z,44.78
2022-10-31T17:53:45.094Z,46.67
2022-10-31T17:56:11.576Z,48.03
2022-10-31T17:58:38.684Z,47.88
2022-10-31T18:01:13.792Z,46.70
2022-10-31T18:03:43.532Z,50.47
2022-10-31T18:06:10.614Z,52.45
2022-10-31T18:08:39.562Z,52.20
2022-10-31T18:11:09.631Z,50.45
2022-10-31T18:13:36.845Z,55.50
2022-10-31T18:16:10.406Z,53.53
2022-10-31T18:18:36.917Z,57.08
2022-10-31T18:21:03.825Z,54.00
2022-10-31T18:23:31.287Z,54.63
2022-10-31T18:25:57.881Z,52.55
2022-10-31T18:28:24.519Z,49.67
2022-10-31T18:30:51.173Z,54.53
2022-10-31T18:33:17.620Z,54.85
2022-10-31T18:35:44.570Z,53.60
2022-10-31T18:38:11.680Z,50.60
2022-10-31T18:40:41.437Z,53.20
2022-10-31T18:43:08.007Z,53.17
2022-10-31T18:45:46.453Z,50.03
2022-10-31T18:48:15.725Z,51.30
2022-10-31T18:50:43.999Z,53.22
2022-10-31T18:53:10.484Z,50.90
2022-10-31T18:55:44.032Z,52.67
2022-10-31T18:58:13.999Z,49.60
2022-10-31T19:00:40.624Z,50.78
2022-10-31T19:03:07.142Z,48.63
2022-10-31T19:05:33.672Z,49.33
2022-10-31T19:08:00.155Z,45.78
2022-10-31T19:10:29.707Z,45.05
2022-10-31T19:12:56.165Z,47.47
2022-10-31T19:15:22.689Z,45.67
2022-10-31T19:17:49.558Z,44.67
2022-10-31T19:20:16.175Z,45.58
2022-10-31T19:22:46.143Z,45.10
2022-10-31T19:25:12.700Z,45.58
2022-10-31T19:27:39.408Z,46.13
2022-10-31T19:30:07.024Z,44.53
2022-10-31T19:32:33.847Z,43.22
2022-10-31T19:35:01.342Z,43.30
2022-10-31T19:37:27.778Z,40.63
2022-10-31T19:39:54.369Z,43.05
2022-10-31T19:42:20.842Z,42.67
2022-10-31T19:44:47.371Z,41.63
2022-10-31T19:47:13.801Z,41.92
2022-10-31T19:49:41.348Z,44.08
2022-10-31T19:52:08.066Z,41.40
2022-10-31T19:54:34.715Z,40.95
2022-10-31T19:57:01.298Z,43.38
2022-10-31T19:59:27.781Z,41.30
2022-10-31T20:01:54.388Z,39.22
2022-10-31T20:04:20.957Z,41.33
2022-10-31T20:06:47.507Z,43.00
2022-10-31T20:09:14.558Z,41.28
2022-10-31T20:11:43.285Z,42.58
2022-10-31T20:14:11.960Z,41.65
2022-10-31T20:16:38.983Z,40.92
2022-10-31T20:19:05.698Z,41.05
2022-10-31T20:21:36.838Z,41.40
2022-10-31T20:24:06.037Z,41.80
2022-10-31T20:26:33.807Z,16.35
2022-10-31T20:29:01.008Z,0.20
2022-10-31T20:31:33.279Z,0.15
2022-10-31T20:33:59.994Z,0.20
2022-10-31T20:36:28.766Z,0.20
2022-10-31T20:38:55.314Z,8.07
2022-10-31T20:41:21.957Z,28.67
2022-10-31T20:43:48.699Z,3.83
2022-10-31T20:46:21.037Z,0.17
2022-10-31T20:48:48.501Z,0.20
2022-10-31T20:51:28.473Z,19.02
2022-10-31T20:53:56.472Z,0.20
2022-10-31T20:56:24.995Z,0.20
2022-10-31T20:58:51.963Z,0.20
2022-10-31T21:01:24.183Z,0.10
2022-10-31T21:03:51.470Z,0.20
2022-10-31T21:06:19.157Z,0.20
2022-10-31T21:08:46.176Z,0.20
2022-10-31T21:11:18.986Z,0.20
2022-10-31T21:13:46.966Z,0.15
2022-10-31T21:16:24.653Z,0.20
2022-10-31T21:18:51.844Z,0.20
2022-10-31T21:21:26.272Z,0.20
2022-10-31T21:24:01.765Z,0.20
2022-10-31T21:26:30.836Z,0.20
2022-10-31T21:28:58.936Z,0.20
2022-10-31T21:31:25.977Z,0.20
2022-10-31T21:33:52.421Z,0.20
2022-10-31T21:36:19.028Z,0.20
2022-10-31T21:38:50.839Z,0.20
2022-10-31T21:41:17.746Z,0.20
2022-10-31T21:43:46.267Z,1.20
2022-10-31T21:46:20.457Z,0.38
2022-10-31T21:48:47.469Z,0.20
2022-10-31T21:51:19.561Z,0.10
2022-10-31T21:54:04.846Z,0.20
2022-10-31T21:56:32.264Z,0.20
2022-10-31T21:58:59.078Z,0.40
2022-10-31T22:01:26.943Z,0.20
2022-10-31T22:03:54.124Z,0.40
2022-10-31T22:06:21.098Z,3.30
2022-10-31T22:08:47.813Z,0.20
2022-10-31T22:11:16.295Z,0.30
2022-10-31T22:13:44.213Z,0.40
2022-10-31T22:16:12.686Z,0.20
2022-10-31T22:18:41.551Z,3.55
2022-10-31T22:21:16.700Z,0.95
2022-10-31T22:23:43.856Z,5.50
2022-10-31T22:26:15.063Z,7.30
2022-10-31T22:28:46.257Z,7.15
2022-10-31T22:31:14.587Z,21.15
2022-10-31T22:33:41.584Z,22.58
2022-10-31T22:36:11.034Z,21.98
2022-10-31T22:38:40.197Z,22.10
2022-10-31T22:41:10.972Z,22.23
2022-10-31T22:43:37.507Z,12.48
2022-10-31T22:46:06.321Z,2.72
2022-10-31T22:48:36.974Z,11.60
2022-10-31T22:51:14.996Z,23.10
2022-10-31T22:53:41.803Z,23.02
2022-10-31T22:56:13.988Z,19.77
2022-10-31T22:58:40.570Z,23.70
2022-10-31T23:01:15.303Z,26.38
2022-10-31T23:03:42.274Z,4.88
2022-10-31T23:06:12.084Z,1.05
2022-10-31T23:08:38.799Z,15.70
2022-10-31T23:11:21.539Z,17.23
2022-10-31T23:14:10.635Z,16.88
2022-10-31T23:16:41.464Z,17.92
2022-10-31T23:19:08.875Z,17.73
2022-10-31T23:21:55.829Z,17.63
2022-10-31T23:24:38.443Z,19.70
2022-10-31T23:27:10.190Z,23.25
2022-10-31T23:29:38.148Z,22.70
2022-10-31T23:32:06.091Z,21.55
2022-10-31T23:34:34.599Z,21.02
2022-10-31T23:37:01.394Z,21.38
2022-10-31T23:39:28.777Z,19.23
2022-10-31T23:41:55.362Z,19.33
2022-10-31T23:44:21.841Z,18.42
2022-10-31T23:46:48.320Z,19.67
2022-10-31T23:49:14.808Z,20.88
2022-10-31T23:51:41.555Z,16.98
2022-10-31T23:54:10.870Z,16.92
2022-10-31T23:56:37.407Z,17.98
2022-10-31T23:59:04.659Z,17.48
